createdAt,value
2018-05-26T01:59:42.170Z,28.40
2018-05-26T02:00:40.253Z,28.20
2018-05-26T02:01:40.241Z,28.10
2018-05-26T02:02:40.304Z,28.90
2018-05-26T02:03:40.263Z,28.90
2018-05-26T02:04:40.385Z,28.40
2018-05-26T02:05:40.281Z,29.30
2018-05-26T02:06:40.302Z,29.50
2018-05-26T02:07:40.311Z,28.60
2018-05-26T02:08:40.342Z,30.70
2018-05-26T02:09:40.336Z,29.60
2018-05-26T02:10:40.355Z,28.90
2018-05-26T02:11:40.352Z,30.00
2018-05-26T02:12:40.368Z,29.10
2018-05-26T02:13:40.497Z,29.50
2018-05-26T02:14:40.388Z,29.40
2018-05-26T02:15:40.505Z,29.10
2018-05-26T02:16:40.415Z,31.20
2018-05-26T02:17:40.492Z,30.10
2018-05-26T02:18:40.436Z,29.90
2018-05-26T02:19:40.504Z,29.80
2018-05-26T02:20:40.459Z,30.30
2018-05-26T02:21:40.519Z,30.20
2018-05-26T02:22:40.490Z,29.20
2018-05-26T02:23:40.531Z,29.60
2018-05-26T02:24:40.510Z,28.10
2018-05-26T02:25:40.548Z,30.00
2018-05-26T02:26:40.548Z,31.00
2018-05-26T02:27:40.560Z,28.90
2018-05-26T02:28:40.564Z,29.40
2018-05-26T02:29:40.675Z,29.00
2018-05-26T02:30:40.584Z,29.70
2018-05-26T02:31:41.622Z,29.80
2018-05-26T02:32:40.600Z,29.20
2018-05-26T02:33:40.717Z,29.60
2018-05-26T02:34:40.628Z,29.10
2018-05-26T02:35:41.763Z,29.50
2018-05-26T02:36:40.650Z,28.70
2018-05-26T02:37:40.750Z,27.50
2018-05-26T02:38:40.714Z,28.10
2018-05-26T02:39:40.760Z,28.00
2018-05-26T02:40:40.735Z,28.00
2018-05-26T02:41:40.760Z,29.20
2018-05-26T02:42:40.728Z,30.50
2018-05-26T02:43:40.790Z,29.70
2018-05-26T02:44:40.747Z,29.60
2018-05-26T02:45:40.813Z,29.20
2018-05-26T02:46:40.804Z,29.00
2018-05-26T02:47:40.805Z,28.40
2018-05-26T02:48:40.805Z,28.40
2018-05-26T02:49:40.920Z,28.40
2018-05-26T02:50:40.819Z,28.50
2018-05-26T02:51:40.936Z,30.60
2018-05-26T02:52:40.839Z,29.60
2018-05-26T02:53:40.949Z,30.30
2018-05-26T02:54:40.881Z,30.00
2018-05-26T02:55:41.992Z,30.50
2018-05-26T02:56:40.888Z,30.40
2018-05-26T02:57:40.978Z,29.90
2018-05-26T02:58:40.915Z,29.20
2018-05-26T02:59:40.992Z,29.10
2018-05-26T03:00:40.963Z,29.20
2018-05-26T03:02:27.885Z,30.60
2018-05-26T03:03:27.915Z,30.80
2018-05-26T03:04:27.851Z,31.10
2018-05-26T03:05:27.926Z,29.20
2018-05-26T03:06:27.868Z,31.40
2018-05-26T03:07:27.937Z,31.80
2018-05-26T03:08:27.928Z,32.40
2018-05-26T03:09:27.957Z,30.80
2018-05-26T03:10:27.920Z,30.40
2018-05-26T03:11:28.985Z,29.80
2018-05-26T03:12:27.948Z,32.40
2018-05-26T03:13:27.986Z,32.40
2018-05-26T03:14:27.979Z,32.10
2018-05-26T03:15:27.994Z,31.70
2018-05-26T03:16:27.984Z,32.80
2018-05-26T03:17:28.105Z,32.50
2018-05-26T03:18:28.009Z,31.70
2018-05-26T03:19:28.121Z,32.20
2018-05-26T03:20:28.031Z,31.80
2018-05-26T03:21:28.133Z,32.10
2018-05-26T03:22:28.048Z,32.20
2018-05-26T03:23:30.094Z,32.00
2018-05-26T03:24:28.087Z,32.90
2018-05-26T03:25:28.168Z,32.20
2018-05-26T03:26:28.122Z,31.80
2018-05-26T03:27:29.196Z,30.70
2018-05-26T03:28:28.146Z,30.70
2018-05-26T03:29:28.189Z,30.40
2018-05-26T03:30:28.143Z,29.60
2018-05-26T03:31:29.242Z,28.80
2018-05-26T03:33:15.053Z,31.00
2018-05-26T03:34:14.950Z,30.20
2018-05-26T03:35:14.955Z,31.50
2018-05-26T03:36:15.033Z,30.80
2018-05-26T03:37:14.983Z,32.00
2018-05-26T03:38:15.036Z,31.90
2018-05-26T03:39:15.040Z,33.30
2018-05-26T03:40:15.054Z,32.50
2018-05-26T03:41:15.036Z,31.60
2018-05-26T03:42:15.060Z,32.80
2018-05-26T03:43:15.048Z,32.20
2018-05-26T03:44:15.080Z,31.50
2018-05-26T03:45:15.070Z,31.40
2018-05-26T03:46:16.122Z,31.50
2018-05-26T03:47:15.101Z,30.90
2018-05-26T03:48:15.240Z,34.30
2018-05-26T03:49:15.114Z,34.70
2018-05-26T03:50:15.221Z,37.60
2018-05-26T03:51:15.140Z,39.00
2018-05-26T03:52:15.247Z,36.20
2018-05-26T03:53:15.203Z,34.30
2018-05-26T03:55:02.321Z,32.50
2018-05-26T03:56:02.364Z,34.00
2018-05-26T03:57:02.323Z,31.80
2018-05-26T03:58:02.374Z,32.10
2018-05-26T03:59:02.327Z,31.30
2018-05-26T04:00:02.433Z,31.90
2018-05-26T04:01:02.349Z,31.10
2018-05-26T04:02:02.402Z,33.80
2018-05-26T04:03:02.372Z,32.10
2018-05-26T04:04:02.413Z,31.70
2018-05-26T04:05:02.394Z,31.70
2018-05-26T04:06:02.486Z,32.50
2018-05-26T04:07:02.421Z,32.50
2018-05-26T04:08:02.445Z,31.70
2018-05-26T04:09:02.439Z,30.30
2018-05-26T04:10:02.564Z,28.00
2018-05-26T04:11:02.474Z,29.30
2018-05-26T04:12:49.343Z,30.70
2018-05-26T04:13:49.378Z,31.00
2018-05-26T04:14:49.320Z,30.40
2018-05-26T04:15:49.510Z,31.20
2018-05-26T04:16:49.364Z,33.40
2018-05-26T04:17:54.306Z,32.20
2018-05-26T04:18:49.367Z,31.50
2018-05-26T04:19:51.432Z,31.00
2018-05-26T04:20:49.408Z,30.40
2018-05-26T04:21:50.415Z,30.00
2018-05-26T04:22:49.415Z,30.60
2018-05-26T04:24:10.510Z,29.70
2018-05-26T04:24:49.472Z,30.10
2018-05-26T04:26:04.276Z,30.10
2018-05-26T04:26:49.455Z,29.10
2018-05-26T04:28:01.229Z,29.50
2018-05-26T04:43:16.571Z,30.30
2018-05-26T04:44:16.589Z,30.50
2018-05-26T04:45:16.543Z,29.40
2018-05-26T04:46:16.639Z,28.70
2018-05-26T04:47:16.543Z,28.90
2018-05-26T04:48:16.557Z,28.40
2018-05-26T04:49:16.562Z,28.10
2018-05-26T04:50:16.588Z,27.60
2018-05-26T04:51:16.591Z,27.60
2018-05-26T04:53:03.454Z,28.10
2018-05-26T04:54:03.418Z,28.10
2018-05-26T04:55:03.427Z,24.10
2018-05-26T04:56:03.508Z,25.60
2018-05-26T04:57:03.464Z,27.80
2018-05-26T04:58:03.476Z,27.70
2018-05-26T04:59:03.477Z,27.50
2018-05-26T05:00:03.483Z,28.00
2018-05-26T05:01:03.493Z,27.40
2018-05-26T05:02:03.494Z,28.20
2018-05-26T05:03:03.543Z,29.40
2018-05-26T05:04:03.533Z,28.00
2018-05-26T05:05:03.565Z,27.60
2018-05-26T05:06:03.543Z,27.60
2018-05-26T05:07:50.830Z,27.50
2018-05-26T05:08:50.897Z,28.40
2018-05-26T05:09:50.854Z,27.10
2018-05-26T05:10:50.896Z,27.20
2018-05-26T05:11:50.854Z,27.60
2018-05-26T05:12:50.937Z,27.40
2018-05-26T05:13:50.874Z,27.00
2018-05-26T05:14:50.926Z,27.30
2018-05-26T05:15:50.890Z,25.10
2018-05-26T05:16:50.943Z,26.90
2018-05-26T05:17:50.949Z,27.80
2018-05-26T05:18:50.953Z,27.80
2018-05-26T05:19:50.967Z,26.30
2018-05-26T05:20:51.017Z,28.10
2018-05-26T05:21:50.982Z,26.20
2018-05-26T05:22:51.023Z,27.80
2018-05-26T05:23:50.997Z,26.80
2018-05-26T05:24:51.095Z,26.90
2018-05-26T05:25:51.011Z,26.70
2018-05-26T05:26:51.108Z,27.80
2018-05-26T05:27:51.045Z,27.60
2018-05-26T05:28:51.053Z,27.60
2018-05-26T05:29:51.080Z,27.90
2018-05-26T05:30:51.184Z,26.80
2018-05-26T05:31:51.075Z,27.00
2018-05-26T05:32:51.187Z,27.00
2018-05-26T05:33:51.116Z,25.70
2018-05-26T05:34:51.211Z,26.40
2018-05-26T05:35:51.133Z,26.80
2018-05-26T05:36:51.201Z,26.30
2018-05-26T05:37:51.144Z,27.20
2018-05-26T05:38:51.218Z,27.50
2018-05-26T05:39:51.174Z,26.30
2018-05-26T05:40:51.224Z,27.30
2018-05-26T05:41:51.199Z,27.40
2018-05-26T05:42:51.245Z,27.60
2018-05-26T05:43:51.218Z,27.40
2018-05-26T05:44:51.265Z,28.20
2018-05-26T05:45:51.248Z,26.80
2018-05-26T05:46:51.394Z,27.30
2018-05-26T05:47:51.263Z,27.00
2018-05-26T05:48:51.386Z,27.40
2018-05-26T05:49:51.292Z,26.60
2018-05-26T05:50:51.412Z,27.60
2018-05-26T05:51:51.315Z,27.10
2018-05-26T05:52:51.415Z,26.40
2018-05-26T05:53:51.339Z,27.50
2018-05-26T05:54:51.431Z,26.60
2018-05-26T05:55:51.368Z,27.30
2018-05-26T05:56:51.443Z,27.10
2018-05-26T05:57:51.386Z,27.20
2018-05-26T05:58:51.469Z,27.60
2018-05-26T05:59:51.404Z,26.60
2018-05-26T06:00:51.479Z,26.20
2018-05-26T06:01:51.430Z,26.30
2018-05-26T06:02:51.493Z,25.60
2018-05-26T06:03:51.468Z,26.30
2018-05-26T06:04:51.495Z,26.10
2018-05-26T06:05:51.477Z,26.80
2018-05-26T06:06:51.519Z,25.50
2018-05-26T06:07:51.502Z,26.60
2018-05-26T06:08:51.540Z,26.60
2018-05-26T06:09:51.528Z,26.10
2018-05-26T06:10:51.642Z,25.90
2018-05-26T06:11:51.561Z,25.90
2018-05-26T06:12:51.662Z,24.40
2018-05-26T06:13:51.595Z,25.10
2018-05-26T06:14:51.725Z,25.60
2018-05-26T06:15:51.614Z,24.20
2018-05-26T06:17:38.437Z,23.20
2018-05-26T06:18:38.499Z,22.80
2018-05-26T06:19:38.433Z,22.70
2018-05-26T06:20:38.511Z,23.80
2018-05-26T06:21:38.445Z,23.10
2018-05-26T06:22:38.618Z,23.30
2018-05-26T06:23:38.474Z,22.10
2018-05-26T06:24:38.639Z,23.40
2018-05-26T06:25:38.505Z,21.90
2018-05-26T06:26:38.657Z,23.20
2018-05-26T06:27:38.634Z,23.00
2018-05-26T06:28:38.609Z,22.30
2018-05-26T06:29:38.543Z,22.00
2018-05-26T06:30:38.634Z,21.40
2018-05-26T06:31:38.566Z,20.80
2018-05-26T06:32:38.632Z,21.80
2018-05-26T06:33:38.604Z,21.40
2018-05-26T06:34:38.654Z,21.60
2018-05-26T06:36:25.510Z,20.80
2018-05-26T06:37:25.417Z,20.30
2018-05-26T06:38:25.400Z,19.70
2018-05-26T06:39:25.473Z,20.60
2018-05-26T06:40:25.423Z,19.20
2018-05-26T06:41:25.478Z,19.30
2018-05-26T06:42:25.452Z,18.50
2018-05-26T06:43:25.521Z,19.40
2018-05-26T06:44:25.473Z,20.40
2018-05-26T06:45:25.500Z,19.50
2018-05-26T06:46:25.494Z,19.80
2018-05-26T06:47:25.516Z,19.40
2018-05-26T06:48:25.523Z,19.60
2018-05-26T06:49:25.641Z,19.20
2018-05-26T06:50:25.526Z,18.90
2018-05-26T06:51:25.643Z,19.40
2018-05-26T06:52:25.556Z,18.30
2018-05-26T06:53:25.658Z,19.20
2018-05-26T06:54:25.600Z,18.60
2018-05-26T06:55:25.717Z,21.10
2018-05-26T06:56:25.604Z,20.00
2018-05-26T06:57:25.692Z,19.10
2018-05-26T06:58:25.623Z,18.50
2018-05-26T06:59:25.704Z,17.60
2018-05-26T07:00:25.640Z,18.90
2018-05-26T07:01:25.717Z,18.20
2018-05-26T07:02:25.671Z,17.70
2018-05-26T07:03:25.733Z,18.30
2018-05-26T07:05:12.488Z,17.50
2018-05-26T07:06:12.411Z,17.60
2018-05-26T07:07:12.426Z,17.40
2018-05-26T07:08:12.444Z,17.30
2018-05-26T07:09:12.444Z,17.50
2018-05-26T07:10:12.554Z,17.50
2018-05-26T07:11:12.467Z,18.00
2018-05-26T07:12:12.574Z,17.70
2018-05-26T07:13:12.490Z,16.00
2018-05-26T07:14:12.623Z,16.70
2018-05-26T07:15:12.524Z,16.70
2018-05-26T07:16:12.598Z,16.20
2018-05-26T07:17:12.547Z,16.40
2018-05-26T07:18:12.616Z,16.50
2018-05-26T07:19:12.555Z,16.40
2018-05-26T07:20:12.625Z,15.80
2018-05-26T07:21:12.591Z,15.70
2018-05-26T07:22:12.635Z,15.70
2018-05-26T07:23:12.603Z,15.70
2018-05-26T07:24:13.685Z,15.30
2018-05-26T07:25:12.627Z,14.90
2018-05-26T07:26:12.672Z,14.50
2018-05-26T07:27:12.644Z,14.60
2018-05-26T07:28:12.675Z,14.60
2018-05-26T07:29:12.677Z,15.30
2018-05-26T07:30:12.791Z,13.60
2018-05-26T07:31:12.694Z,14.00
2018-05-26T07:32:12.817Z,14.20
2018-05-26T07:33:12.713Z,15.20
2018-05-26T07:34:12.817Z,14.30
2018-05-26T07:35:12.743Z,14.10
2018-05-26T07:36:12.836Z,14.20
2018-05-26T07:37:12.780Z,13.40
2018-05-26T07:38:12.848Z,13.30
2018-05-26T07:39:12.784Z,13.90
2018-05-26T07:40:12.859Z,13.00
2018-05-26T07:41:12.801Z,13.70
2018-05-26T07:42:12.910Z,13.70
2018-05-26T07:43:12.830Z,13.50
2018-05-26T07:44:12.886Z,12.80
2018-05-26T07:45:12.854Z,13.10
2018-05-26T07:46:12.901Z,12.00
2018-05-26T07:47:12.934Z,11.20
2018-05-26T07:48:12.910Z,12.60
2018-05-26T07:49:12.902Z,12.70
2018-05-26T07:50:13.032Z,12.90
2018-05-26T07:51:12.928Z,12.10
2018-05-26T07:52:13.039Z,12.00
2018-05-26T07:53:13.022Z,11.40
2018-05-26T07:54:13.052Z,11.00
2018-05-26T07:55:12.997Z,13.00
2018-05-26T07:56:13.070Z,11.40
2018-05-26T07:57:13.000Z,11.90
2018-05-26T07:58:13.131Z,11.60
2018-05-26T08:00:00.052Z,10.90
2018-05-26T08:00:59.929Z,10.80
2018-05-26T08:01:59.944Z,11.20
2018-05-26T08:03:00.069Z,11.70
2018-05-26T08:03:59.947Z,12.00
2018-05-26T08:05:00.028Z,11.90
2018-05-26T08:05:59.977Z,10.70
2018-05-26T08:07:00.026Z,10.20
2018-05-26T08:08:00.007Z,10.80
2018-05-26T08:09:00.039Z,10.20
2018-05-26T08:10:00.028Z,10.10
2018-05-26T08:11:00.065Z,10.10
2018-05-26T08:12:00.043Z,9.70
2018-05-26T08:13:00.178Z,10.10
2018-05-26T08:14:00.073Z,9.80
2018-05-26T08:15:00.190Z,10.50
2018-05-26T08:16:00.119Z,10.30
2018-05-26T08:17:00.188Z,10.30
2018-05-26T08:18:00.171Z,9.90
2018-05-26T08:19:00.217Z,9.30
2018-05-26T08:20:00.148Z,9.00
2018-05-26T08:21:00.216Z,8.50
2018-05-26T08:22:00.188Z,8.20
2018-05-26T08:23:00.228Z,7.60
2018-05-26T08:24:00.202Z,8.40
2018-05-26T08:25:00.283Z,9.00
2018-05-26T08:26:47.112Z,8.10
2018-05-26T08:27:46.988Z,8.30
2018-05-26T08:28:47.022Z,8.00
2018-05-26T08:29:47.065Z,8.20
2018-05-26T08:30:47.038Z,7.60
2018-05-26T08:31:47.106Z,8.40
2018-05-26T08:32:47.056Z,7.30
2018-05-26T08:33:47.115Z,7.20
2018-05-26T08:34:47.095Z,6.60
2018-05-26T08:36:33.862Z,6.80
2018-05-26T08:37:33.923Z,6.80
2018-05-26T08:38:33.874Z,7.10
2018-05-26T08:39:33.939Z,7.00
2018-05-26T08:40:33.899Z,6.40
2018-05-26T08:41:33.942Z,6.80
2018-05-26T08:42:33.909Z,6.80
2018-05-26T08:43:33.963Z,6.60
2018-05-26T08:44:33.940Z,6.60
2018-05-26T08:45:33.991Z,6.20
2018-05-26T08:46:33.963Z,5.70
2018-05-26T08:47:34.078Z,5.70
2018-05-26T08:48:33.986Z,5.50
2018-05-26T08:49:34.098Z,5.50
2018-05-26T08:50:34.019Z,5.10
2018-05-26T08:51:34.100Z,4.80
2018-05-26T08:52:34.035Z,5.00
2018-05-26T08:53:34.114Z,5.00
2018-05-26T08:54:34.105Z,5.40
2018-05-26T08:55:34.137Z,5.80
2018-05-26T08:56:34.099Z,5.30
2018-05-26T08:57:34.156Z,5.10
2018-05-26T08:58:34.136Z,5.00
2018-05-26T08:59:34.151Z,4.90
2018-05-26T09:00:34.146Z,4.60
2018-05-26T09:02:26.004Z,4.90
2018-05-26T09:03:25.991Z,5.30
2018-05-26T09:04:25.959Z,5.30
2018-05-26T09:05:26.008Z,5.30
2018-05-26T09:06:25.981Z,5.30
2018-05-26T09:07:26.163Z,5.20
2018-05-26T09:08:25.998Z,5.30
2018-05-26T09:09:26.030Z,5.40
2018-05-26T09:10:26.073Z,5.20
2018-05-26T09:11:26.136Z,5.40
2018-05-26T09:12:26.049Z,5.20
2018-05-26T09:13:26.164Z,5.10
2018-05-26T09:14:26.092Z,5.10
2018-05-26T09:15:26.165Z,5.00
2018-05-26T09:16:26.154Z,4.80
2018-05-26T09:17:26.203Z,5.00
2018-05-26T09:18:26.141Z,5.20
2018-05-26T09:19:26.201Z,4.90
2018-05-26T09:20:26.148Z,5.00
2018-05-26T09:21:26.206Z,4.50
2018-05-26T09:22:26.177Z,5.00
2018-05-26T09:23:26.217Z,5.00
2018-05-26T09:24:26.205Z,5.20
2018-05-26T09:25:26.287Z,5.40
2018-05-26T09:26:26.229Z,5.50
2018-05-26T09:27:26.354Z,5.30
2018-05-26T09:28:26.263Z,5.30
2018-05-26T09:29:26.362Z,5.20
2018-05-26T09:30:26.289Z,5.10
2018-05-26T09:31:26.378Z,5.60
2018-05-26T09:32:26.317Z,5.40
2018-05-26T09:33:26.384Z,5.60
2018-05-26T09:34:26.341Z,5.20
2018-05-26T09:35:26.406Z,5.30
2018-05-26T09:36:26.362Z,4.60
2018-05-26T09:37:26.413Z,5.10
2018-05-26T09:38:26.392Z,5.00
2018-05-26T09:39:26.424Z,4.80
2018-05-26T09:40:26.422Z,4.60
2018-05-26T09:41:26.586Z,4.60
2018-05-26T09:42:26.469Z,5.30
2018-05-26T09:43:26.553Z,5.20
2018-05-26T09:44:26.481Z,5.10
2018-05-26T09:45:26.569Z,4.50
2018-05-26T09:46:26.509Z,5.10
2018-05-26T09:47:26.595Z,4.90
2018-05-26T09:48:26.543Z,4.70
2018-05-26T09:49:26.634Z,4.50
2018-05-26T09:50:26.578Z,4.10
2018-05-26T09:51:26.613Z,4.50
2018-05-26T09:52:26.598Z,4.70
2018-05-26T09:53:26.621Z,5.10
2018-05-26T09:54:26.619Z,4.50
2018-05-26T09:55:26.738Z,4.80
2018-05-26T09:56:26.722Z,4.70
2018-05-26T09:57:26.748Z,4.60
2018-05-26T09:58:26.696Z,4.20
2018-05-26T09:59:26.759Z,4.20
2018-05-26T10:00:26.765Z,4.40
2018-05-26T10:01:27.055Z,4.10
2018-05-26T10:02:26.735Z,4.40
2018-05-26T10:03:26.795Z,3.80
2018-05-26T10:04:26.774Z,4.00
2018-05-26T10:05:26.806Z,3.80
2018-05-26T10:06:26.840Z,4.60
2018-05-26T10:08:13.580Z,4.10
2018-05-26T10:09:13.621Z,4.00
2018-05-26T10:10:13.601Z,4.20
2018-05-26T10:11:13.632Z,4.10
2018-05-26T10:12:13.599Z,5.30
2018-05-26T10:13:13.640Z,5.40
2018-05-26T10:14:13.631Z,5.20
2018-05-26T10:15:13.699Z,5.00
2018-05-26T10:16:13.674Z,5.00
2018-05-26T10:17:13.772Z,4.50
2018-05-26T10:18:13.685Z,4.80
2018-05-26T10:19:13.786Z,3.70
2018-05-26T10:20:13.717Z,3.80
2018-05-26T10:21:14.839Z,3.70
2018-05-26T10:22:13.739Z,4.10
2018-05-26T10:23:13.825Z,4.50
2018-05-26T10:24:13.765Z,4.10
2018-05-26T10:25:13.823Z,4.60
2018-05-26T10:26:13.845Z,4.10
2018-05-26T10:27:13.892Z,4.40
2018-05-26T10:28:13.830Z,4.50
2018-05-26T10:29:13.956Z,4.40
2018-05-26T10:30:13.850Z,3.90
2018-05-26T10:31:13.960Z,4.30
2018-05-26T10:32:13.889Z,4.70
2018-05-26T10:33:13.977Z,4.60
2018-05-26T10:34:13.915Z,4.20
2018-05-26T10:35:13.991Z,4.40
2018-05-26T10:36:13.951Z,4.20
2018-05-26T10:37:14.006Z,3.80
2018-05-26T10:38:14.072Z,4.40
2018-05-26T10:39:14.016Z,4.40
2018-05-26T10:40:13.998Z,4.20
2018-05-26T10:41:14.135Z,4.40
2018-05-26T10:42:14.035Z,4.10
2018-05-26T10:43:14.145Z,4.10
2018-05-26T10:44:14.072Z,4.10
2018-05-26T10:45:14.183Z,4.50
2018-05-26T10:46:14.148Z,4.10
2018-05-26T10:47:14.176Z,3.70
2018-05-26T10:48:14.129Z,3.90
2018-05-26T10:49:14.223Z,4.40
2018-05-26T10:50:14.167Z,4.20
2018-05-26T10:51:14.197Z,4.00
2018-05-26T10:52:14.174Z,3.80
2018-05-26T10:53:14.219Z,4.00
2018-05-26T10:54:14.197Z,4.00
2018-05-26T10:55:14.333Z,4.00
2018-05-26T10:56:14.238Z,4.30
2018-05-26T10:57:14.343Z,4.40
2018-05-26T10:58:14.269Z,4.00
2018-05-26T10:59:14.345Z,4.40
2018-05-26T11:00:14.298Z,3.90
2018-05-26T11:01:14.375Z,4.40
2018-05-26T11:03:01.217Z,4.30
2018-05-26T11:04:01.107Z,4.10
2018-05-26T11:05:01.193Z,3.60
2018-05-26T11:06:01.149Z,3.70
2018-05-26T11:07:01.197Z,4.00
2018-05-26T11:08:01.170Z,3.40
2018-05-26T11:09:01.237Z,3.90
2018-05-26T11:10:01.253Z,3.50
2018-05-26T11:11:01.364Z,4.10
2018-05-26T11:12:48.186Z,4.30
2018-05-26T11:13:48.068Z,4.30
2018-05-26T11:14:48.079Z,4.20
2018-05-26T11:15:48.140Z,3.70
2018-05-26T11:16:48.108Z,3.70
2018-05-26T11:17:48.343Z,3.80
2018-05-26T11:18:48.169Z,4.30
2018-05-26T11:19:48.281Z,4.60
2018-05-26T11:20:48.173Z,4.10
2018-05-26T11:21:48.291Z,4.20
2018-05-26T11:22:48.222Z,4.30
2018-05-26T11:23:48.330Z,3.60
2018-05-26T11:24:48.312Z,4.00
2018-05-26T11:25:48.381Z,3.70
2018-05-26T11:26:48.274Z,3.50
2018-05-26T11:27:48.317Z,4.70
2018-05-26T11:28:48.329Z,4.30
2018-05-26T11:30:35.329Z,4.10
2018-05-26T11:31:35.265Z,3.70
2018-05-26T11:32:35.244Z,3.80
2018-05-26T11:33:35.298Z,4.80
2018-05-26T11:34:35.261Z,5.10
2018-05-26T11:35:35.273Z,4.40
2018-05-26T11:36:35.261Z,4.00
2018-05-26T11:37:35.412Z,4.10
2018-05-26T11:38:35.316Z,4.40
2018-05-26T11:39:35.400Z,3.90
2018-05-26T11:40:35.314Z,3.80
2018-05-26T11:41:35.431Z,3.90
2018-05-26T11:42:35.344Z,3.50
2018-05-26T11:43:35.461Z,3.50
2018-05-26T11:44:35.454Z,3.40
2018-05-26T11:45:35.462Z,3.50
2018-05-26T11:46:35.427Z,3.70
2018-05-26T11:47:35.446Z,3.40
2018-05-26T11:48:35.440Z,3.60
2018-05-26T11:49:35.571Z,3.70
2018-05-26T11:50:35.494Z,3.30
2018-05-26T11:51:35.583Z,3.40
2018-05-26T11:52:35.509Z,3.60
2018-05-26T11:54:22.403Z,4.00
2018-05-26T11:55:22.412Z,3.90
2018-05-26T11:56:22.351Z,3.60
2018-05-26T11:57:22.449Z,3.60
2018-05-26T11:58:22.417Z,3.80
2018-05-26T11:59:22.522Z,3.80
2018-05-26T12:00:22.431Z,3.70
2018-05-26T12:01:22.548Z,3.60
2018-05-26T12:02:22.460Z,3.50
2018-05-26T12:03:22.541Z,3.40
2018-05-26T12:04:22.480Z,3.70
2018-05-26T12:05:22.553Z,3.40
2018-05-26T12:06:22.536Z,3.50
2018-05-26T12:07:22.523Z,3.50
2018-05-26T12:08:22.543Z,3.90
2018-05-26T12:10:09.354Z,3.80
2018-05-26T12:11:09.440Z,3.70
2018-05-26T12:13:04.659Z,3.80
2018-05-26T12:14:04.706Z,3.50
2018-05-26T12:15:04.666Z,3.50
2018-05-26T12:16:04.731Z,3.80
2018-05-26T12:17:04.683Z,3.40
2018-05-26T12:18:04.725Z,3.70
2018-05-26T12:19:04.723Z,3.40
2018-05-26T12:20:04.838Z,3.70
2018-05-26T12:21:04.748Z,3.40
2018-05-26T12:22:04.846Z,3.50
2018-05-26T12:23:04.782Z,3.80
2018-05-26T12:24:05.911Z,3.30
2018-05-26T12:25:04.833Z,3.40
2018-05-26T12:26:04.883Z,3.70
2018-05-26T12:27:04.839Z,3.20
2018-05-26T12:28:04.942Z,3.50
2018-05-26T12:29:04.866Z,3.60
2018-05-26T12:30:04.912Z,3.40
2018-05-26T12:31:04.895Z,3.60
2018-05-26T12:32:05.028Z,3.80
2018-05-26T12:33:04.934Z,4.90
2018-05-26T12:34:05.060Z,5.70
2018-05-26T12:35:04.983Z,4.20
2018-05-26T12:36:51.845Z,3.60
2018-05-26T12:37:51.846Z,3.80
2018-05-26T12:38:51.829Z,3.30
2018-05-26T12:39:51.863Z,3.60
2018-05-26T12:40:51.838Z,3.80
2018-05-26T12:41:51.877Z,3.70
2018-05-26T12:42:51.877Z,3.50
2018-05-26T12:43:51.992Z,3.90
2018-05-26T12:44:51.908Z,3.30
2018-05-26T12:45:52.027Z,3.70
2018-05-26T12:46:51.958Z,3.30
2018-05-26T12:47:52.037Z,3.30
2018-05-26T12:48:51.997Z,3.10
2018-05-26T12:49:52.038Z,3.10
2018-05-26T12:50:52.059Z,3.50
2018-05-26T12:51:52.084Z,3.80
2018-05-26T12:52:52.028Z,3.60
2018-05-26T12:53:52.161Z,3.50
2018-05-26T12:54:52.070Z,3.20
2018-05-26T12:55:53.187Z,3.60
2018-05-26T12:56:52.133Z,3.20
2018-05-26T12:57:52.205Z,3.50
2018-05-26T12:58:52.134Z,3.40
2018-05-26T12:59:52.199Z,3.40
2018-05-26T13:00:52.198Z,3.40
2018-05-26T13:01:52.237Z,3.30
2018-05-26T13:02:52.196Z,3.80
2018-05-26T13:03:52.257Z,3.40
2018-05-26T13:04:52.320Z,3.40
2018-05-26T13:05:52.340Z,3.50
2018-05-26T13:06:52.251Z,3.40
2018-05-26T13:07:52.348Z,3.70
2018-05-26T13:08:52.284Z,3.30
2018-05-26T13:09:52.358Z,3.50
2018-05-26T13:10:52.397Z,3.60
2018-05-26T13:11:52.371Z,3.20
2018-05-26T13:12:52.355Z,3.30
2018-05-26T13:13:52.389Z,3.50
2018-05-26T13:14:52.396Z,3.50
2018-05-26T13:15:52.498Z,3.80
2018-05-26T13:16:52.412Z,3.90
2018-05-26T13:17:52.519Z,3.90
2018-05-26T13:18:52.468Z,3.70
2018-05-26T13:19:52.532Z,3.80
2018-05-26T13:20:52.472Z,4.30
2018-05-26T13:21:52.571Z,4.00
2018-05-26T13:22:52.509Z,3.90
2018-05-26T13:23:52.567Z,3.60
2018-05-26T13:24:52.553Z,3.40
2018-05-26T13:25:52.597Z,3.60
2018-05-26T13:26:52.658Z,3.80
2018-05-26T13:27:52.713Z,3.60
2018-05-26T13:28:52.603Z,3.90
2018-05-26T13:29:52.708Z,3.80
2018-05-26T13:30:52.679Z,3.50
2018-05-26T13:32:40.287Z,3.70
2018-05-26T13:33:40.350Z,3.80
2018-05-26T13:34:40.297Z,3.90
2018-05-26T13:35:40.375Z,3.40
2018-05-26T13:36:40.324Z,3.80
2018-05-26T13:37:40.360Z,3.70
2018-05-26T13:38:40.377Z,3.70
2018-05-26T13:39:40.474Z,3.70
2018-05-26T13:40:40.511Z,3.90
2018-05-26T13:41:40.484Z,3.90
2018-05-26T13:42:40.425Z,3.60
2018-05-26T13:43:40.495Z,3.90
2018-05-26T13:44:40.444Z,3.90
2018-05-26T13:45:40.562Z,3.70
2018-05-26T13:46:40.536Z,3.60
2018-05-26T13:47:40.529Z,3.90
2018-05-26T13:48:40.539Z,4.10
2018-05-26T13:49:40.664Z,3.80
2018-05-26T13:50:40.607Z,3.70
2018-05-26T13:51:40.650Z,3.90
2018-05-26T13:52:40.584Z,4.10
2018-05-26T13:53:40.816Z,3.80
2018-05-26T13:54:40.643Z,3.50
2018-05-26T13:55:41.730Z,3.70
2018-05-26T13:56:40.636Z,3.50
2018-05-26T13:57:40.694Z,3.60
2018-05-26T13:58:40.912Z,3.70
2018-05-26T13:59:40.822Z,3.40
2018-05-26T14:00:40.707Z,3.80
2018-05-26T14:01:40.869Z,3.40
2018-05-26T14:02:40.733Z,3.40
2018-05-26T14:03:40.842Z,3.60
2018-05-26T14:05:27.677Z,3.50
2018-05-26T14:06:27.631Z,3.50
2018-05-26T14:07:27.609Z,3.40
2018-05-26T14:08:27.662Z,3.30
2018-05-26T14:09:27.663Z,3.30
2018-05-26T14:10:27.780Z,3.40
2018-05-26T14:11:27.692Z,3.20
2018-05-26T14:12:27.718Z,3.70
2018-05-26T14:13:27.861Z,3.30
2018-05-26T14:14:27.746Z,3.30
2018-05-26T14:15:27.853Z,3.60
2018-05-26T14:17:15.268Z,3.30
2018-05-26T14:18:15.081Z,3.30
2018-05-26T14:19:15.129Z,3.30
2018-05-26T14:20:15.142Z,3.50
2018-05-26T14:21:15.127Z,3.50
2018-05-26T14:22:15.141Z,3.40
2018-05-26T14:23:15.282Z,3.20
2018-05-26T14:24:15.197Z,3.30
2018-05-26T14:25:15.355Z,3.80
2018-05-26T14:26:15.277Z,3.70
2018-05-26T14:27:15.672Z,3.90
2018-05-26T14:28:15.303Z,3.80
2018-05-26T14:29:15.378Z,3.40
2018-05-26T14:30:15.346Z,3.40
2018-05-26T14:31:15.330Z,3.80
2018-05-26T14:32:15.310Z,3.40
2018-05-26T14:33:15.441Z,3.60
2018-05-26T14:34:15.342Z,3.50
2018-05-26T14:35:15.465Z,3.60
2018-05-26T14:36:15.405Z,3.60
2018-05-26T14:37:15.457Z,4.00
2018-05-26T14:39:02.301Z,4.00
2018-05-26T14:40:02.213Z,4.10
2018-05-26T14:41:02.247Z,3.50
2018-05-26T14:42:02.278Z,3.50
2018-05-26T14:43:02.267Z,3.70
2018-05-26T14:44:02.383Z,3.30
2018-05-26T14:45:02.315Z,3.10
2018-05-26T14:46:02.412Z,3.20
2018-05-26T14:47:02.327Z,3.60
2018-05-26T14:48:02.432Z,3.10
2018-05-26T14:49:02.366Z,3.30
2018-05-26T14:50:02.523Z,3.10
2018-05-26T14:51:02.401Z,3.30
2018-05-26T14:52:02.447Z,3.40
2018-05-26T14:53:02.446Z,3.60
2018-05-26T14:54:02.553Z,3.70
2018-05-26T14:55:02.461Z,3.70
2018-05-26T14:56:02.569Z,3.60
2018-05-26T14:57:02.508Z,4.00
2018-05-26T14:58:02.594Z,3.40
2018-05-26T14:59:02.536Z,3.60
2018-05-26T15:00:02.613Z,3.40
2018-05-26T15:01:02.563Z,3.60
2018-05-26T15:02:02.611Z,3.10
2018-05-26T15:03:02.596Z,3.50
2018-05-26T15:04:02.731Z,3.40
2018-05-26T15:05:02.645Z,3.50
2018-05-26T15:06:49.901Z,3.40
2018-05-26T15:07:49.897Z,3.40
2018-05-26T15:08:49.925Z,3.50
2018-05-26T15:09:49.934Z,3.30
2018-05-26T15:10:49.975Z,3.60
2018-05-26T15:11:49.967Z,3.40
2018-05-26T15:12:50.058Z,3.70
2018-05-26T15:13:49.995Z,3.50
2018-05-26T15:15:37.191Z,3.90
2018-05-26T15:16:37.208Z,4.20
2018-05-26T15:17:37.173Z,3.60
2018-05-26T15:18:37.355Z,3.10
2018-05-26T15:19:37.202Z,3.40
2018-05-26T15:20:37.236Z,3.40
2018-05-26T15:21:37.236Z,3.40
2018-05-26T15:22:37.355Z,3.50
2018-05-26T15:23:37.266Z,3.40
2018-05-26T15:24:37.366Z,3.30
2018-05-26T15:25:37.327Z,3.40
2018-05-26T15:26:37.377Z,3.50
2018-05-26T15:27:37.571Z,3.70
2018-05-26T15:28:37.350Z,3.30
2018-05-26T15:29:37.421Z,4.00
2018-05-26T15:30:37.378Z,3.40
2018-05-26T15:31:37.417Z,3.60
2018-05-26T15:32:37.427Z,3.40
2018-05-26T15:33:37.442Z,3.30
2018-05-26T15:34:37.531Z,3.30
2018-05-26T15:35:37.465Z,3.50
2018-05-26T15:36:37.493Z,3.20
2018-05-26T15:37:37.556Z,3.70
2018-05-26T15:38:37.511Z,3.40
2018-05-26T15:39:37.544Z,3.30
2018-05-26T15:40:37.544Z,3.60
2018-05-26T15:41:37.575Z,3.30